Time;durP1;ratioP1;P1;durP2;ratioP2;P2;SDS_P1;SDS_P2;PMS_P1;PMS_P2;Temp;Humidity;BMP_temperature;BMP_pressure;BME280_temperature;BME280_humidity;BME280_pressure;Samples;Min_cycle;Max_cycle;Signal;HPM_P1;HPM_P2
2022/01/22 00:01:09;;;;;;;;;;;;;;;22.51;17.50;97871.91;5073509;28;928;-72
2022/01/22 00:03:34;;;;;;;;;;;;;;;22.83;16.92;97860.28;5073196;28;1175;-72
2022/01/22 00:06:00;;;;;;;;;;;;;;;22.77;17.03;97867.78;5073014;28;1975;-73
2022/01/22 00:08:25;;;;;;;;;;;;;;;22.78;17.10;97863.69;5073135;28;1046;-72
2022/01/22 00:10:52;;;;;;;;;;;;;;;22.55;17.24;97878.25;5074931;28;856;-72
2022/01/22 00:15:43;;;;;;;;;;;;;;;22.41;17.49;97867.38;5079851;28;926;-72
2022/01/22 00:18:08;;;;;;;;;;;;;;;22.67;17.19;97853.97;5056996;28;985;-72
2022/01/22 00:20:36;;;;;;;;;;;;;;;22.76;16.77;97849.19;5056983;28;977;-73
2022/01/22 00:23:02;;;;;;;;;;;;;;;22.43;17.35;97853.53;5057167;28;1018;-72
2022/01/22 00:25:27;;;;;;;;;;;;;;;21.96;17.74;97854.16;5056961;28;967;-72
2022/01/22 00:27:53;;;;;;;;;;;;;;;22.47;17.49;97845.69;5056755;28;1909;-72
2022/01/22 00:30:19;;;;;;;;;;;;;;;23.08;16.75;97853.00;5040200;28;1148;-72
2022/01/22 00:32:45;;;;;;;;;;;;;;;22.98;16.74;97842.81;5056863;28;951;-73
2022/01/22 00:35:11;;;;;;;;;;;;;;;22.45;17.01;97839.72;5040056;28;1086;-72
2022/01/22 00:37:38;;;;;;;;;;;;;;;22.03;17.60;97831.28;5056642;28;1150;-72
2022/01/22 00:40:04;;;;;;;;;;;;;;;22.83;16.94;97826.25;5036687;28;1275;-72
2022/01/22 00:42:31;;;;;;;;;;;;;;;23.24;16.27;97832.94;5036638;28;1007;-72
2022/01/22 00:44:56;;;;;;;;;;;;;;;22.57;16.87;97821.88;5036492;28;972;-72
2022/01/22 00:47:22;;;;;;;;;;;;;;;22.18;17.29;97831.66;5036761;28;1914;-72
2022/01/22 00:49:47;;;;;;;;;;;;;;;22.38;17.42;97828.56;5052131;28;958;-73
2022/01/22 00:52:14;;;;;;;;;;;;;;;22.43;17.11;97822.34;5056818;28;1083;-72
2022/01/22 00:54:39;;;;;;;;;;;;;;;22.63;16.93;97831.38;5056676;28;1055;-72
2022/01/22 00:57:05;;;;;;;;;;;;;;;22.52;17.38;97833.78;5056566;28;1007;-72
2022/01/22 00:59:30;;;;;;;;;;;;;;;22.65;17.16;97831.75;5056308;28;1185;-73
2022/01/22 01:01:58;;;;;;;;;;;;;;;22.75;16.71;97824.91;5056659;28;1035;-73
2022/01/22 01:04:23;;;;;;;;;;;;;;;22.77;16.82;97828.06;5056642;28;1057;-72
2022/01/22 01:06:49;;;;;;;;;;;;;;;22.56;16.87;97823.91;5056322;28;1910;-72
2022/01/22 01:09:14;;;;;;;;;;;;;;;21.95;17.57;97825.03;5056347;28;938;-73
2022/01/22 01:12:02;;;;;;;;;;;;;;;22.15;17.34;97824.84;5073417;28;974;-72
2022/01/22 01:14:38;;;;;;;;;;;;;;;22.48;16.82;97816.09;5039472;28;1231;-73
2022/01/22 01:33:40;;;;;;;;;;;;;;;22.12;17.08;97805.91;4976584;28;1024;-72
2022/01/22 01:36:06;;;;;;;;;;;;;;;22.61;16.64;97797.81;4957749;29;1000;-72
2022/01/22 01:38:38;;;;;;;;;;;;;;;22.39;17.06;97801.84;4941507;29;957;-72
2022/01/22 01:41:13;;;;;;;;;;;;;;;22.76;16.45;97803.81;4942662;29;1218;-73
2022/01/22 01:43:39;;;;;;;;;;;;;;;22.07;17.03;97798.75;4957270;29;1254;-73
2022/01/22 01:46:25;;;;;;;;;;;;;;;21.81;17.33;97797.13;4949566;28;1968;-72
2022/01/22 01:48:51;;;;;;;;;;;;;;;22.14;17.25;97808.31;4956847;29;928;-72
2022/01/22 01:51:17;;;;;;;;;;;;;;;21.97;17.05;97807.59;4918956;29;1166;-74
2022/01/22 01:53:52;;;;;;;;;;;;;;;21.94;17.05;97800.00;4918845;29;1723;-73
2022/01/22 01:59:02;;;;;;;;;;;;;;;21.70;17.59;97802.34;4929737;29;1420;-72
2022/01/22 02:01:28;;;;;;;;;;;;;;;22.52;16.87;97799.75;4938018;29;1667;-72
2022/01/22 02:03:53;;;;;;;;;;;;;;;22.44;16.74;97799.22;4937673;29;1242;-73
2022/01/22 02:06:22;;;;;;;;;;;;;;;22.47;16.57;97780.50;4921928;29;1907;-72
2022/01/22 02:08:52;;;;;;;;;;;;;;;22.51;16.60;97781.19;4921485;29;1229;-72
2022/01/22 02:11:25;;;;;;;;;;;;;;;22.45;16.49;97785.84;4937934;29;1035;-72
2022/01/22 02:25:37;;;;;;;;;;;;;;;22.09;16.98;97803.97;4918448;29;990;-72
2022/01/22 02:28:03;;;;;;;;;;;;;;;22.15;17.16;97798.56;4902423;29;1976;-72
2022/01/22 02:30:35;;;;;;;;;;;;;;;22.44;16.67;97792.75;4918393;29;1149;-72
2022/01/22 02:33:19;;;;;;;;;;;;;;;22.56;16.72;97801.22;4918152;29;1045;-72
2022/01/22 02:35:53;;;;;;;;;;;;;;;22.58;16.66;97803.59;4917222;29;1310;-73
2022/01/22 02:38:27;;;;;;;;;;;;;;;22.62;16.77;97795.78;4899075;29;1171;-72
2022/01/22 02:40:53;;;;;;;;;;;;;;;22.52;16.84;97796.94;4881610;29;1229;-73
2022/01/22 02:43:20;;;;;;;;;;;;;;;22.59;16.65;97806.00;4899099;29;1108;-72
2022/01/22 02:45:46;;;;;;;;;;;;;;;22.51;16.82;97798.19;4880294;29;1903;-73
2022/01/22 02:48:12;;;;;;;;;;;;;;;22.55;16.81;97793.19;4898688;29;1651;-72
2022/01/22 02:50:38;;;;;;;;;;;;;;;21.96;17.25;97795.44;4878274;29;1249;-72
2022/01/22 02:53:03;;;;;;;;;;;;;;;21.94;17.34;97794.34;4895934;29;1173;-72
2022/01/22 02:55:29;;;;;;;;;;;;;;;22.04;17.23;97796.03;4898947;29;1235;-72
2022/01/22 02:57:57;;;;;;;;;;;;;;;22.75;16.37;97790.88;4917200;29;1401;-72
2022/01/22 03:00:23;;;;;;;;;;;;;;;22.72;16.40;97791.00;4917371;29;1073;-72
2022/01/22 03:02:50;;;;;;;;;;;;;;;22.70;16.38;97782.94;4917176;29;986;-73
2022/01/22 03:05:18;;;;;;;;;;;;;;;22.76;16.24;97783.94;4898560;29;1358;-72
2022/01/22 03:07:48;;;;;;;;;;;;;;;22.69;16.26;97780.56;4879800;29;1915;-72
2022/01/22 03:10:15;;;;;;;;;;;;;;;22.35;16.89;97773.59;4896027;29;1154;-73
2022/01/22 03:18:04;;;;;;;;;;;;;;;21.66;17.46;97785.47;4893739;29;1765;-72
2022/01/22 03:20:59;;;;;;;;;;;;;;;21.96;17.00;97774.84;4936272;29;1214;-72
2022/01/22 03:31:20;;;;;;;;;;;;;;;22.18;16.95;97769.31;4948521;28;1222;-73
2022/01/22 03:33:46;;;;;;;;;;;;;;;22.36;16.64;97770.31;4944664;29;1059;-72
2022/01/22 03:36:12;;;;;;;;;;;;;;;22.74;16.58;97772.28;4938768;29;943;-72
2022/01/22 03:38:37;;;;;;;;;;;;;;;23.27;15.77;97772.44;4908745;29;936;-72
2022/01/22 03:41:03;;;;;;;;;;;;;;;22.75;16.58;97764.56;4898621;29;1125;-72
2022/01/22 03:43:29;;;;;;;;;;;;;;;22.03;17.16;97774.63;4913228;29;1235;-72
2022/01/22 03:45:57;;;;;;;;;;;;;;;22.21;16.87;97769.19;4936174;29;1973;-72
2022/01/22 03:48:22;;;;;;;;;;;;;;;22.50;16.77;97768.25;4924664;29;969;-72
2022/01/22 03:50:51;;;;;;;;;;;;;;;22.47;16.31;97757.81;4951385;29;1231;-72
2022/01/22 03:53:17;;;;;;;;;;;;;;;22.56;16.72;97767.22;4936366;29;1482;-72
2022/01/22 03:58:34;;;;;;;;;;;;;;;22.48;16.37;97742.38;4954942;29;1172;-72
2022/01/22 04:04:04;;;;;;;;;;;;;;;22.69;16.06;97755.03;4976724;28;1464;-72
2022/01/22 04:09:03;;;;;;;;;;;;;;;22.62;16.35;97753.25;4935733;29;1124;-72
2022/01/22 04:11:31;;;;;;;;;;;;;;;22.80;15.92;97755.47;4868508;29;1154;-72
2022/01/22 04:14:02;;;;;;;;;;;;;;;22.74;16.04;97766.59;4863644;29;1167;-72
2022/01/22 04:16:29;;;;;;;;;;;;;;;22.66;16.32;97768.09;4879204;29;1367;-72
2022/01/22 04:27:13;;;;;;;;;;;;;;;22.79;16.03;97743.31;4823904;29;1967;-72
2022/01/22 04:29:38;;;;;;;;;;;;;;;22.58;16.32;97741.22;4824187;29;954;-72
2022/01/22 04:32:04;;;;;;;;;;;;;;;22.06;16.84;97746.16;4851739;29;1142;-72
2022/01/22 04:34:30;;;;;;;;;;;;;;;22.07;16.83;97741.28;4866378;29;1234;-72
2022/01/22 04:36:55;;;;;;;;;;;;;;;22.20;16.79;97739.25;4879305;29;1191;-72
2022/01/22 04:39:22;;;;;;;;;;;;;;;22.58;16.12;97735.53;4887367;29;1144;-72
2022/01/22 04:41:48;;;;;;;;;;;;;;;22.22;16.43;97745.25;4929961;28;1664;-72
2022/01/22 04:44:14;;;;;;;;;;;;;;;22.59;16.35;97742.81;4974093;28;1088;-73
2022/01/22 04:49:12;;;;;;;;;;;;;;;22.73;16.12;97741.53;4973933;28;1241;-72
2022/01/22 04:57:09;;;;;;;;;;;;;;;22.66;15.92;97758.78;4973710;28;1147;-72
2022/01/22 04:59:35;;;;;;;;;;;;;;;22.60;16.22;97752.91;4975876;28;1446;-72
2022/01/22 05:02:02;;;;;;;;;;;;;;;22.66;16.05;97768.09;4919820;29;1801;-72
2022/01/22 05:05:06;;;;;;;;;;;;;;;22.66;16.11;97770.94;4895074;29;1014;-73
2022/01/22 05:07:50;;;;;;;;;;;;;;;22.50;16.27;97765.41;4868577;29;1899;-72
2022/01/22 05:10:21;;;;;;;;;;;;;;;21.91;16.55;97772.56;4845132;29;1267;-72
2022/01/22 05:12:47;;;;;;;;;;;;;;;22.07;16.49;97769.63;4853336;29;1160;-72
2022/01/22 05:15:14;;;;;;;;;;;;;;;22.53;16.33;97773.78;4863350;29;1119;-72
2022/01/22 05:17:42;;;;;;;;;;;;;;;22.93;15.74;97772.47;4805666;29;1123;-72
2022/01/22 05:20:34;;;;;;;;;;;;;;;22.48;16.25;97776.41;4790426;29;1171;-72
2022/01/22 05:23:14;;;;;;;;;;;;;;;21.72;17.03;97780.03;4801538;29;1213;-72
2022/01/22 05:25:56;;;;;;;;;;;;;;;22.27;16.19;97778.69;4813363;29;1111;-72
2022/01/22 05:32:04;;;;;;;;;;;;;;;21.75;16.92;97782.75;4808088;29;1031;-72
2022/01/22 05:37:41;;;;;;;;;;;;;;;22.34;16.55;97780.53;4786827;29;1311;-72
2022/01/22 05:40:07;;;;;;;;;;;;;;;22.01;16.73;97785.59;4824597;29;1216;-72
2022/01/22 05:42:33;;;;;;;;;;;;;;;21.76;17.00;97773.03;4844472;29;1457;-72
2022/01/22 05:44:58;;;;;;;;;;;;;;;22.38;15.99;97772.66;4826530;29;1276;-72
2022/01/22 05:47:27;;;;;;;;;;;;;;;22.28;16.21;97773.84;4820740;29;1969;-72
2022/01/22 05:49:53;;;;;;;;;;;;;;;21.89;16.70;97777.91;4825771;29;1176;-72
2022/01/22 05:52:38;;;;;;;;;;;;;;;22.14;16.58;97775.09;4862540;29;1162;-72
2022/01/22 06:00:30;;;;;;;;;;;;;;;22.22;16.59;97775.66;4809114;29;1162;-72
2022/01/22 06:03:07;;;;;;;;;;;;;;;22.02;16.64;97779.50;4807837;29;1194;-72
2022/01/22 06:05:33;;;;;;;;;;;;;;;22.71;15.86;97776.03;4836034;29;1184;-72
2022/01/22 06:07:58;;;;;;;;;;;;;;;22.12;16.03;97771.91;4850801;29;1972;-72
2022/01/22 06:10:29;;;;;;;;;;;;;;;22.51;16.25;97779.13;4859064;29;1568;-72
2022/01/22 06:13:10;;;;;;;;;;;;;;;21.91;16.72;97779.03;4856170;29;1480;-72
2022/01/22 06:15:36;;;;;;;;;;;;;;;21.63;17.06;97775.03;4906207;29;1227;-72
2022/01/22 06:18:37;;;;;;;;;;;;;;;21.70;16.97;97771.97;4978950;28;952;-72
2022/01/22 06:21:03;;;;;;;;;;;;;;;22.43;16.12;97768.47;4976002;28;1326;-72
2022/01/22 06:23:29;;;;;;;;;;;;;;;22.19;16.23;97766.03;4971265;28;1281;-72
2022/01/22 06:25:58;;;;;;;;;;;;;;;22.29;16.20;97764.88;4975768;28;1995;-73
2022/01/22 06:28:23;;;;;;;;;;;;;;;22.60;15.99;97761.41;4951953;28;1287;-72
2022/01/22 06:30:51;;;;;;;;;;;;;;;22.39;16.27;97762.16;4972469;28;1234;-72
2022/01/22 06:33:16;;;;;;;;;;;;;;;22.43;16.11;97759.97;4972669;28;1221;-71
2022/01/22 06:35:42;;;;;;;;;;;;;;;22.61;15.69;97757.34;4972954;28;1552;-72
2022/01/22 06:38:09;;;;;;;;;;;;;;;22.45;15.71;97748.97;4972951;28;1158;-72
2022/01/22 06:43:56;;;;;;;;;;;;;;;22.30;16.24;97755.13;4984637;28;839;-72
2022/01/22 06:46:27;;;;;;;;;;;;;;;22.16;16.43;97755.59;5013380;28;1914;-72
2022/01/22 06:49:07;;;;;;;;;;;;;;;22.09;16.17;97747.31;5014691;28;1527;-72
2022/01/22 06:51:58;;;;;;;;;;;;;;;22.48;16.06;97760.19;5023761;28;1024;-72
2022/01/22 06:54:23;;;;;;;;;;;;;;;22.50;15.86;97751.25;5054748;28;1103;-72
2022/01/22 06:56:49;;;;;;;;;;;;;;;22.48;15.79;97753.72;5074062;28;1070;-72
2022/01/22 06:59:16;;;;;;;;;;;;;;;22.42;16.02;97755.56;5057152;28;1087;-72
2022/01/22 07:01:45;;;;;;;;;;;;;;;22.47;15.99;97757.81;5034252;28;917;-72
2022/01/22 07:04:18;;;;;;;;;;;;;;;22.44;15.92;97750.25;5034189;28;1255;-72
2022/01/22 07:07:12;;;;;;;;;;;;;;;22.32;16.31;97746.16;5004823;28;1910;-72
2022/01/22 07:09:39;;;;;;;;;;;;;;;22.46;16.19;97745.69;5034203;28;1274;-72
2022/01/22 07:12:05;;;;;;;;;;;;;;;22.54;16.08;97746.25;5033997;28;1205;-72
2022/01/22 07:14:30;;;;;;;;;;;;;;;22.43;16.16;97752.25;5000801;28;1071;-73
2022/01/22 07:16:56;;;;;;;;;;;;;;;22.27;16.13;97750.34;5027486;28;1117;-73
2022/01/22 07:19:51;;;;;;;;;;;;;;;21.88;16.35;97756.50;4994292;28;1055;-72
2022/01/22 07:25:39;;;;;;;;;;;;;;;22.39;16.10;97740.25;4999027;28;1064;-72
2022/01/22 07:28:43;;;;;;;;;;;;;;;22.56;16.06;97732.38;4955357;28;888;-72
2022/01/22 07:31:08;;;;;;;;;;;;;;;22.61;15.58;97729.75;4939664;28;1206;-72
2022/01/22 07:33:36;;;;;;;;;;;;;;;22.68;15.99;97739.25;4939745;28;1063;-72
2022/01/22 07:36:02;;;;;;;;;;;;;;;22.76;15.72;97747.06;4990874;28;1080;-72
2022/01/22 07:38:27;;;;;;;;;;;;;;;22.58;15.93;97741.22;4990996;28;767;-72
2022/01/22 07:40:53;;;;;;;;;;;;;;;22.48;15.78;97731.03;4990816;28;1316;-71
2022/01/22 07:43:31;;;;;;;;;;;;;;;22.72;15.64;97729.38;4990547;28;1414;-72
2022/01/22 07:46:02;;;;;;;;;;;;;;;22.81;15.66;97737.97;4989938;28;1985;-72
2022/01/22 07:48:30;;;;;;;;;;;;;;;22.22;16.15;97745.25;4990295;28;1071;-72
2022/01/22 07:51:16;;;;;;;;;;;;;;;22.41;16.24;97740.59;4955116;29;1033;-72
2022/01/22 07:53:46;;;;;;;;;;;;;;;22.39;16.18;97739.47;4920485;29;1238;-72
2022/01/22 07:56:31;;;;;;;;;;;;;;;22.18;16.37;97724.78;4894203;29;1140;-72
2022/01/22 07:58:58;;;;;;;;;;;;;;;21.80;16.48;97719.09;4881355;29;1207;-72
2022/01/22 08:01:26;;;;;;;;;;;;;;;22.18;16.43;97724.78;4890892;29;1103;-72
2022/01/22 08:04:10;;;;;;;;;;;;;;;22.43;15.96;97723.91;4935867;29;966;-72
2022/01/22 08:07:03;;;;;;;;;;;;;;;22.09;16.44;97731.09;4936028;29;1982;-71
2022/01/22 08:09:46;;;;;;;;;;;;;;;22.20;16.38;97727.94;4922545;29;930;-73
2022/01/22 08:12:23;;;;;;;;;;;;;;;22.07;16.51;97719.44;4937631;29;1195;-72
2022/01/22 08:14:53;;;;;;;;;;;;;;;22.36;16.26;97724.16;4954850;28;1271;-72
2022/01/22 08:17:19;;;;;;;;;;;;;;;22.49;15.82;97716.44;4955321;29;1055;-72
2022/01/22 08:19:44;;;;;;;;;;;;;;;22.29;15.99;97728.03;4955031;29;1217;-72
2022/01/22 08:22:39;;;;;;;;;;;;;;;22.57;15.87;97733.97;4955006;29;884;-72
2022/01/22 08:25:24;;;;;;;;;;;;;;;22.29;16.35;97739.38;4974115;28;1105;-72
2022/01/22 08:30:28;;;;;;;;;;;;;;;22.30;15.87;97738.13;5013292;28;1112;-72
2022/01/22 08:33:10;;;;;;;;;;;;;;;21.84;16.68;97733.94;4978328;28;1103;-72
2022/01/22 08:35:54;;;;;;;;;;;;;;;22.34;16.30;97733.13;4983479;28;1355;-72
2022/01/22 08:38:21;;;;;;;;;;;;;;;22.44;15.87;97724.72;5013596;28;1108;-72
2022/01/22 08:40:47;;;;;;;;;;;;;;;22.50;15.81;97718.00;5001493;28;1143;-72
2022/01/22 08:43:13;;;;;;;;;;;;;;;22.21;16.37;97717.38;5000733;28;1226;-72
2022/01/22 08:45:39;;;;;;;;;;;;;;;22.28;16.34;97720.78;5000681;28;1680;-72
2022/01/22 08:48:05;;;;;;;;;;;;;;;22.54;16.05;97734.91;5000589;28;1907;-72
2022/01/22 08:50:32;;;;;;;;;;;;;;;21.84;16.61;97731.88;4997198;28;1167;-72
2022/01/22 08:52:58;;;;;;;;;;;;;;;22.40;16.34;97732.56;4997118;28;1144;-72
2022/01/22 08:55:24;;;;;;;;;;;;;;;22.57;15.90;97722.63;4996880;28;865;-72
2022/01/22 08:57:52;;;;;;;;;;;;;;;22.35;16.23;97717.69;4997188;28;1418;-72
2022/01/22 09:00:52;;;;;;;;;;;;;;;22.63;16.02;97720.78;4958320;29;991;-72
2022/01/22 09:03:26;;;;;;;;;;;;;;;22.51;16.01;97710.28;4938860;29;1234;-72
2022/01/22 09:06:11;;;;;;;;;;;;;;;22.53;16.21;97704.94;4939161;29;1899;-72
2022/01/22 09:09:06;;;;;;;;;;;;;;;21.85;16.81;97705.16;4938888;29;1033;-66
2022/01/22 09:12:01;;;;;;;;;;;;;;;22.61;16.09;97695.72;4938972;29;989;-72
2022/01/22 09:14:37;;;;;;;;;;;;;;;22.44;16.24;97697.16;4938638;29;927;-72
2022/01/22 09:17:02;;;;;;;;;;;;;;;22.35;16.20;97686.53;4907275;29;1242;-72
2022/01/22 09:19:33;;;;;;;;;;;;;;;21.74;17.20;97690.53;4922909;29;1781;-71
2022/01/22 09:22:03;;;;;;;;;;;;;;;21.89;16.96;97681.59;4884817;29;1324;-72
2022/01/22 09:24:29;;;;;;;;;;;;;;;22.44;16.48;97679.38;4900909;29;1116;-72
2022/01/22 09:26:57;;;;;;;;;;;;;;;22.02;16.88;97673.84;4885393;29;1997;-72
2022/01/22 09:29:23;;;;;;;;;;;;;;;22.34;16.51;97682.09;4885262;29;1354;-72
2022/01/22 09:31:49;;;;;;;;;;;;;;;21.46;17.33;97677.31;4863297;29;1257;-71
2022/01/22 09:34:34;;;;;;;;;;;;;;;21.70;16.97;97672.88;4844487;29;1332;-72
2022/01/22 09:37:20;;;;;;;;;;;;;;;22.35;16.52;97663.84;4863900;29;952;-72
2022/01/22 09:40:08;;;;;;;;;;;;;;;21.69;17.36;97671.28;4861348;29;797;-72
2022/01/22 09:43:12;;;;;;;;;;;;;;;22.07;16.88;97661.94;4871367;29;817;-72
2022/01/22 09:45:57;;;;;;;;;;;;;;;21.45;17.46;97650.22;4881207;29;974;-72
2022/01/22 09:48:51;;;;;;;;;;;;;;;21.61;17.45;97661.47;4906039;29;1103;-71
2022/01/22 09:51:37;;;;;;;;;;;;;;;21.91;17.20;97654.38;4900327;29;1040;-72
2022/01/22 09:54:20;;;;;;;;;;;;;;;21.44;17.66;97649.44;4890177;29;1533;-72
2022/01/22 09:57:05;;;;;;;;;;;;;;;21.96;16.87;97647.34;4919177;29;945;-72
2022/01/22 09:59:50;;;;;;;;;;;;;;;22.29;16.80;97645.84;4899777;29;1051;-71
2022/01/22 10:02:48;;;;;;;;;;;;;;;21.70;17.16;97644.56;4892450;29;1041;-72
2022/01/22 10:05:38;;;;;;;;;;;;;;;21.71;17.42;97651.00;4918504;29;1208;-72
2022/01/22 10:08:27;;;;;;;;;;;;;;;21.66;17.40;97638.25;4918426;29;1915;-72
2022/01/22 10:11:31;;;;;;;;;;;;;;;22.26;16.71;97638.25;4854519;29;1076;-72
2022/01/22 10:14:09;;;;;;;;;;;;;;;21.65;17.33;97636.63;4853807;29;1381;-72
2022/01/22 10:16:35;;;;;;;;;;;;;;;22.27;16.73;97637.00;4862544;29;957;-72
2022/01/22 10:19:11;;;;;;;;;;;;;;;23.11;16.09;97636.41;4899562;29;1262;-72
2022/01/22 10:21:37;;;;;;;;;;;;;;;22.38;16.47;97635.81;4899463;29;1021;-72
2022/01/22 10:24:21;;;;;;;;;;;;;;;22.27;16.83;97637.00;4828273;29;1065;-71
2022/01/22 10:26:46;;;;;;;;;;;;;;;22.13;17.09;97631.06;4805662;29;1986;-72
2022/01/22 10:29:12;;;;;;;;;;;;;;;22.74;16.38;97630.47;4783517;29;1031;-72
2022/01/22 10:31:45;;;;;;;;;;;;;;;22.79;16.25;97631.88;4789231;29;975;-72
2022/01/22 10:34:38;;;;;;;;;;;;;;;22.26;16.58;97629.75;4789014;29;1129;-72
2022/01/22 10:37:28;;;;;;;;;;;;;;;22.49;16.42;97631.38;4783904;29;996;-71
2022/01/22 10:40:15;;;;;;;;;;;;;;;22.36;16.58;97631.41;4815184;29;1003;-72
2022/01/22 10:42:40;;;;;;;;;;;;;;;22.38;16.56;97630.16;4904210;29;1000;-71
2022/01/22 10:45:08;;;;;;;;;;;;;;;22.26;16.68;97618.41;4899494;29;999;-71
2022/01/22 10:47:33;;;;;;;;;;;;;;;22.23;16.85;97619.34;4899078;29;1972;-72
2022/01/22 10:50:17;;;;;;;;;;;;;;;21.99;17.30;97616.06;4926056;29;1000;-72
2022/01/22 10:52:46;;;;;;;;;;;;;;;21.63;17.78;97613.66;4986960;28;778;-72
2022/01/22 10:55:11;;;;;;;;;;;;;;;21.57;17.60;97606.97;5014843;28;765;-71
2022/01/22 10:57:37;;;;;;;;;;;;;;;22.01;17.19;97607.13;5013512;28;778;-72
2022/01/22 11:00:02;;;;;;;;;;;;;;;20.97;18.31;97618.91;5014246;28;1307;-72
2022/01/22 11:02:34;;;;;;;;;;;;;;;21.74;17.49;97616.13;5052198;28;1110;-72
2022/01/22 11:04:59;;;;;;;;;;;;;;;21.54;17.69;97607.88;5056554;28;722;-72
2022/01/22 11:07:25;;;;;;;;;;;;;;;21.86;17.39;97606.81;5056199;28;1910;-72
2022/01/22 11:09:50;;;;;;;;;;;;;;;21.57;17.75;97601.31;5056176;28;1000;-72
2022/01/22 11:12:16;;;;;;;;;;;;;;;21.37;17.87;97595.09;5056331;28;790;-72
2022/01/22 11:14:42;;;;;;;;;;;;;;;21.56;17.56;97602.56;5053521;28;1040;-72
2022/01/22 11:17:07;;;;;;;;;;;;;;;21.31;17.67;97601.34;5054235;28;941;-72
2022/01/22 11:19:33;;;;;;;;;;;;;;;21.43;17.83;97601.78;5053644;28;998;-71
2022/01/22 11:22:14;;;;;;;;;;;;;;;21.20;17.67;97600.84;5054046;28;787;-72
2022/01/22 11:24:41;;;;;;;;;;;;;;;21.54;17.68;97602.22;5053645;28;814;-72
2022/01/22 11:27:07;;;;;;;;;;;;;;;21.33;17.78;97601.66;5054006;28;1965;-71
2022/01/22 11:29:51;;;;;;;;;;;;;;;21.47;17.67;97596.81;5053897;28;916;-72
2022/01/22 11:32:17;;;;;;;;;;;;;;;22.07;17.26;97593.94;5053638;28;817;-72
2022/01/22 11:34:43;;;;;;;;;;;;;;;22.04;16.86;97597.72;5053483;28;883;-72
2022/01/22 11:37:09;;;;;;;;;;;;;;;21.49;17.70;97588.63;5053981;28;770;-72
2022/01/22 11:39:34;;;;;;;;;;;;;;;21.42;17.79;97594.53;5053281;28;859;-72
2022/01/22 11:42:00;;;;;;;;;;;;;;;21.42;17.87;97588.88;5053505;28;838;-71
2022/01/22 11:45:02;;;;;;;;;;;;;;;21.38;17.51;97588.19;5053618;28;786;-72
2022/01/22 11:47:27;;;;;;;;;;;;;;;21.85;17.21;97583.34;5014177;28;1906;-71
2022/01/22 11:50:06;;;;;;;;;;;;;;;21.60;17.65;97583.41;4993905;28;770;-72
2022/01/22 11:52:35;;;;;;;;;;;;;;;21.47;17.58;97582.66;4994144;28;1008;-72
2022/01/22 11:55:01;;;;;;;;;;;;;;;21.91;17.48;97579.94;4994329;28;969;-72
2022/01/22 11:57:28;;;;;;;;;;;;;;;22.61;16.60;97576.63;4994004;28;1031;-71
2022/01/22 12:00:12;;;;;;;;;;;;;;;22.85;16.01;97574.13;4993978;28;1096;-72
2022/01/22 12:02:37;;;;;;;;;;;;;;;22.12;16.75;97579.22;4994093;28;751;-72
2022/01/22 12:05:05;;;;;;;;;;;;;;;21.74;17.30;97582.16;4974573;28;902;-73
2022/01/22 12:07:35;;;;;;;;;;;;;;;22.09;16.92;97582.97;4974661;28;1985;-72
2022/01/22 12:15:13;;;;;;;;;;;;;;;21.73;17.31;97563.56;4947595;28;980;-71
2022/01/22 12:18:00;;;;;;;;;;;;;;;22.14;16.83;97562.56;4978181;28;992;-71
2022/01/22 12:20:43;;;;;;;;;;;;;;;22.87;16.33;97571.59;4907735;29;1018;-71
2022/01/22 12:23:13;;;;;;;;;;;;;;;22.07;17.04;97559.94;4923160;29;1285;-72
2022/01/22 12:25:38;;;;;;;;;;;;;;;22.11;16.97;97563.47;4939750;29;895;-72
2022/01/22 12:28:04;;;;;;;;;;;;;;;21.57;17.58;97565.31;4939472;29;1991;-72
2022/01/22 12:30:32;;;;;;;;;;;;;;;21.54;17.54;97571.88;4923635;29;1333;-71
2022/01/22 12:33:01;;;;;;;;;;;;;;;21.92;17.21;97570.22;4939599;29;830;-72
2022/01/22 12:35:34;;;;;;;;;;;;;;;22.21;16.99;97559.47;4920104;29;934;-72
2022/01/22 12:41:01;;;;;;;;;;;;;;;21.56;17.74;97560.09;4864267;29;927;-72
2022/01/22 12:43:38;;;;;;;;;;;;;;;21.01;17.93;97550.94;4863852;29;1038;-72
2022/01/22 12:46:03;;;;;;;;;;;;;;;21.43;17.73;97567.81;4864558;29;739;-72
2022/01/22 12:48:32;;;;;;;;;;;;;;;21.78;17.46;97572.28;4882085;29;2051;-72
2022/01/22 12:51:04;;;;;;;;;;;;;;;21.55;17.39;97569.81;4867448;29;1403;-72
2022/01/22 12:53:30;;;;;;;;;;;;;;;21.37;17.67;97569.63;4882527;29;1196;-71
2022/01/22 12:58:21;;;;;;;;;;;;;;;22.35;16.59;97575.97;4962847;28;1059;-72
2022/01/22 13:00:47;;;;;;;;;;;;;;;22.74;16.46;97573.75;4977665;28;885;-71
2022/01/22 13:03:13;;;;;;;;;;;;;;;23.03;16.06;97578.34;4977988;28;867;-71
2022/01/22 13:05:38;;;;;;;;;;;;;;;22.47;16.70;97574.31;4968279;28;926;-72
2022/01/22 13:08:12;;;;;;;;;;;;;;;22.09;17.12;97580.91;5027294;28;1907;-71
2022/01/22 13:10:58;;;;;;;;;;;;;;;22.47;16.61;97587.72;5056160;28;794;-71
2022/01/22 13:13:24;;;;;;;;;;;;;;;22.92;16.33;97578.75;5039667;28;751;-72
2022/01/22 13:16:08;;;;;;;;;;;;;;;22.74;16.25;97573.75;5036348;28;914;-72
2022/01/22 13:18:39;;;;;;;;;;;;;;;22.21;16.67;97578.53;5035997;28;798;-72
2022/01/22 13:21:06;;;;;;;;;;;;;;;21.49;17.54;97582.97;5034918;28;985;-71
2022/01/22 13:23:31;;;;;;;;;;;;;;;22.58;16.46;97582.44;5035912;28;1032;-71
2022/01/22 13:25:57;;;;;;;;;;;;;;;22.71;16.40;97576.69;5036023;28;903;-72
2022/01/22 13:28:23;;;;;;;;;;;;;;;22.41;16.76;97578.22;5035900;28;1906;-72
2022/01/22 13:30:59;;;;;;;;;;;;;;;22.25;16.82;97582.81;5038767;28;842;-71
2022/01/22 13:33:36;;;;;;;;;;;;;;;22.80;16.28;97583.22;5035896;28;945;-71
2022/01/22 13:36:15;;;;;;;;;;;;;;;22.85;16.18;97588.31;5035754;28;927;-72
2022/01/22 13:49:41;;;;;;;;;;;;;;;22.14;17.22;97582.41;5057638;28;850;-72
2022/01/22 13:52:07;;;;;;;;;;;;;;;22.17;17.16;97586.34;5058082;28;739;-71
2022/01/22 13:54:42;;;;;;;;;;;;;;;22.03;16.98;97584.81;5055403;28;853;-72
2022/01/22 13:57:09;;;;;;;;;;;;;;;21.80;17.36;97581.09;5057711;28;766;-72
2022/01/22 13:59:36;;;;;;;;;;;;;;;21.38;17.88;97580.50;5057702;28;1080;-72
2022/01/22 14:02:15;;;;;;;;;;;;;;;22.15;16.88;97589.66;5057528;28;590;-72
2022/01/22 14:04:42;;;;;;;;;;;;;;;20.97;18.21;97587.81;5057964;28;723;-72
2022/01/22 14:07:14;;;;;;;;;;;;;;;21.31;17.63;97584.34;5057851;28;1985;-72
2022/01/22 14:09:49;;;;;;;;;;;;;;;21.33;17.82;97589.53;5054953;28;949;-72
2022/01/22 14:12:15;;;;;;;;;;;;;;;21.40;17.80;97580.84;5055176;28;792;-71
2022/01/22 14:14:59;;;;;;;;;;;;;;;21.41;17.74;97584.47;5055179;28;751;-72
2022/01/22 14:17:27;;;;;;;;;;;;;;;21.41;17.85;97582.44;5055156;28;838;-72
2022/01/22 14:19:59;;;;;;;;;;;;;;;22.04;17.10;97586.38;5022426;28;1152;-71
2022/01/22 14:22:27;;;;;;;;;;;;;;;21.43;17.63;97579.13;5055300;28;805;-72
2022/01/22 14:25:10;;;;;;;;;;;;;;;21.30;17.80;97582.78;5054945;28;1214;-71
2022/01/22 14:27:35;;;;;;;;;;;;;;;21.51;17.30;97586.16;5054706;28;1902;-72
2022/01/22 14:30:01;;;;;;;;;;;;;;;21.13;17.83;97600.25;5055154;28;892;-71
2022/01/22 14:32:27;;;;;;;;;;;;;;;21.93;17.39;97602.97;5054762;28;767;-72
2022/01/22 14:34:53;;;;;;;;;;;;;;;21.66;17.41;97604.25;5054499;28;914;-72
2022/01/22 14:37:30;;;;;;;;;;;;;;;21.40;17.67;97609.16;5015086;28;865;-72
2022/01/22 14:45:20;;;;;;;;;;;;;;;21.39;17.52;97612.41;5020592;28;1028;-71
2022/01/22 14:47:51;;;;;;;;;;;;;;;21.14;17.75;97602.66;5034376;28;1965;-71
2022/01/22 14:50:16;;;;;;;;;;;;;;;21.36;17.63;97611.28;5017986;28;929;-72
2022/01/22 14:52:42;;;;;;;;;;;;;;;21.98;16.95;97613.72;5034386;28;882;-72
2022/01/22 14:55:11;;;;;;;;;;;;;;;22.84;16.34;97617.91;5034398;28;821;-72
2022/01/22 14:57:38;;;;;;;;;;;;;;;22.54;16.14;97621.50;5034689;28;927;-71
2022/01/22 15:00:07;;;;;;;;;;;;;;;21.97;16.72;97612.13;5034181;28;1368;-71
2022/01/22 15:02:32;;;;;;;;;;;;;;;22.36;16.74;97627.78;5034590;28;792;-71
2022/01/22 15:04:58;;;;;;;;;;;;;;;22.55;16.62;97628.72;5034059;28;810;-72
2022/01/22 15:07:23;;;;;;;;;;;;;;;22.58;16.21;97622.13;5036830;28;1899;-72
2022/01/22 15:09:49;;;;;;;;;;;;;;;22.30;16.62;97627.56;5056788;28;722;-71
2022/01/22 15:12:16;;;;;;;;;;;;;;;22.21;16.89;97638.81;5056143;28;726;-72
2022/01/22 15:14:41;;;;;;;;;;;;;;;22.71;16.43;97631.38;5073874;28;887;-71
2022/01/22 15:19:32;;;;;;;;;;;;;;;22.46;16.33;97625.81;5073869;28;877;-71
2022/01/22 15:21:58;;;;;;;;;;;;;;;22.23;16.91;97619.34;5073951;28;773;-71
2022/01/22 15:24:25;;;;;;;;;;;;;;;22.24;16.54;97620.91;5073768;28;1004;-71